Time;durP1;ratioP1;P1;durP2;ratioP2;P2;SDS_P1;SDS_P2;PMS_P1;PMS_P2;Temp;Humidity;BMP_temperature;BMP_pressure;BME280_temperature;BME280_humidity;BME280_pressure;Samples;Min_cycle;Max_cycle;Signal;HPM_P1;HPM_P2
2022/08/27 00:03:38;;;;;;;11.00;7.15;;;;;;;22.16;68.79;100029.81;3411786;84;36890;-88
2022/08/27 00:08:43;;;;;;;13.18;7.62;;;;;;;22.13;68.86;100025.77;3420248;85;98681;-89
2022/08/27 00:13:45;;;;;;;;;;;;;;;22.11;69.14;100019.83;3433122;85;30108;-90
2022/08/27 00:18:47;;;;;;;12.98;7.87;;;;;;;22.07;70.53;100024.83;3421507;84;85050;-89
2022/08/27 00:23:48;;;;;;;13.60;7.17;;;;;;;22.03;69.75;100034.00;3409857;83;75145;-89
2022/08/27 00:28:50;;;;;;;12.68;7.20;;;;;;;21.99;69.83;100029.16;3433369;83;99131;-89
2022/08/27 00:33:51;;;;;;;12.28;7.83;;;;;;;21.85;70.71;100015.11;3426413;84;36399;-88
2022/08/27 00:38:52;;;;;;;12.03;7.28;;;;;;;21.94;70.70;100038.96;3398301;85;99039;-89
2022/08/27 00:43:58;;;;;;;15.15;7.92;;;;;;;21.93;71.30;100038.02;3498890;83;37698;-89
2022/08/27 00:49:21;;;;;;;14.85;8.13;;;;;;;21.92;71.72;100031.65;3496407;82;98998;-88
2022/08/27 00:54:25;;;;;;;12.15;7.70;;;;;;;21.91;71.99;100038.47;3509021;82;32532;-89
2022/08/27 00:59:29;;;;;;;12.95;8.23;;;;;;;21.87;72.25;100040.66;3501631;82;98922;-89
2022/08/27 01:04:33;;;;;;;11.50;7.60;;;;;;;21.83;72.45;100037.22;3514785;83;31671;-89
2022/08/27 01:09:36;;;;;;;13.55;8.73;;;;;;;21.79;72.63;100040.02;3502789;82;98810;-88
2022/08/27 01:14:38;;;;;;;19.20;9.63;;;;;;;21.72;72.32;100032.67;3499940;83;32362;-89
2022/08/27 01:19:57;;;;;;;16.17;8.23;;;;;;;21.66;72.95;100044.29;3491126;82;98449;-88
2022/08/27 01:25:06;;;;;;;12.70;7.92;;;;;;;21.64;73.34;100036.19;3492272;83;31665;-88
2022/08/27 01:30:10;;;;;;;16.35;9.18;;;;;;;21.61;73.60;100037.09;3508887;82;98785;-89
2022/08/27 01:35:14;;;;;;;17.73;9.45;;;;;;;21.58;73.70;100040.84;3479052;83;31726;-88
2022/08/27 01:40:18;;;;;;;15.60;9.08;;;;;;;21.53;74.03;100044.23;3481554;82;98700;-89
2022/08/27 01:45:33;;;;;;;14.23;8.58;;;;;;;21.47;73.90;100041.23;3529791;83;31715;-89
2022/08/27 01:50:38;;;;;;;12.47;8.18;;;;;;;21.39;74.34;100033.58;3520322;81;98874;-89
2022/08/27 01:55:42;;;;;;;11.85;8.73;;;;;;;21.36;74.58;100029.67;3521262;81;31641;-89
2022/08/27 02:00:48;;;;;;;16.65;9.15;;;;;;;21.33;74.71;100033.41;3529638;82;98767;-89
2022/08/27 02:05:49;;;;;;;16.67;8.58;;;;;;;21.26;74.91;100023.87;3542435;81;26520;-89
2022/08/27 02:10:50;;;;;;;14.07;8.68;;;;;;;21.21;74.88;100025.86;3513226;83;98744;-89
2022/08/27 02:15:52;;;;;;;14.95;9.33;;;;;;;21.15;75.07;100019.94;3530862;83;31765;-89
2022/08/27 02:20:53;;;;;;;14.45;9.35;;;;;;;21.09;75.08;100021.13;3526050;82;98615;-88
2022/08/27 02:25:54;;;;;;;14.03;9.58;;;;;;;21.06;75.15;100017.08;3532814;82;31655;-88
2022/08/27 02:30:55;;;;;;;17.90;10.32;;;;;;;21.01;75.59;100029.65;3511382;83;98465;-88
2022/08/27 02:35:56;;;;;;;16.55;10.00;;;;;;;20.91;75.48;100034.22;3530758;81;98759;-84
2022/08/27 02:40:57;;;;;;;19.73;10.60;;;;;;;20.87;75.71;100027.34;3546415;83;31295;-89
2022/08/27 02:46:00;;;;;;;17.42;9.98;;;;;;;20.85;76.28;100022.03;3524139;82;100943;-89
2022/08/27 02:51:01;;;;;;;16.67;9.28;;;;;;;20.86;76.75;100016.59;3531985;83;32538;-89
2022/08/27 02:56:04;;;;;;;16.93;9.58;;;;;;;20.88;77.16;100013.51;3526776;82;99031;-89
2022/08/27 03:01:05;;;;;;;16.32;9.40;;;;;;;20.89;77.15;100009.53;3518979;83;31653;-89
2022/08/27 03:06:07;;;;;;;15.03;9.90;;;;;;;20.87;77.50;100000.77;3531637;82;98964;-89
2022/08/27 03:11:08;;;;;;;16.15;9.53;;;;;;;20.86;77.47;99995.62;3532618;82;31673;-90
2022/08/27 03:16:09;;;;;;;18.00;11.12;;;;;;;20.83;77.57;99997.95;3516192;82;98393;-89
2022/08/27 03:21:18;;;;;;;19.45;10.82;;;;;;;20.81;77.78;99990.64;3525321;83;30083;-88
2022/08/27 03:26:20;;;;;;;15.25;9.18;;;;;;;20.73;77.33;99992.13;3514600;82;99053;-89
2022/08/27 03:31:28;;;;;;;17.85;10.13;;;;;;;20.65;77.56;100003.42;3527471;82;31726;-88
2022/08/27 03:36:30;;;;;;;17.23;10.88;;;;;;;20.62;78.02;99997.33;3526223;81;99182;-89
2022/08/27 03:41:31;;;;;;;17.35;11.35;;;;;;;20.55;78.10;99985.02;3518632;82;32257;-89
2022/08/27 03:46:32;;;;;;;17.02;10.48;;;;;;;20.51;78.25;99991.34;3511847;82;98920;-89
2022/08/27 03:51:33;;;;;;;16.75;10.93;;;;;;;20.45;78.15;99993.16;3518597;82;31902;-89
2022/08/27 03:56:38;;;;;;;17.10;10.72;;;;;;;20.40;78.54;99997.94;3526555;82;98972;-88
2022/08/27 04:01:37;;;;;;;16.95;11.05;;;;;;;20.36;78.44;100000.86;3536487;82;31627;-89
2022/08/27 04:06:39;;;;;;;17.82;10.35;;;;;;;20.32;78.89;100000.20;3491268;82;99085;-89
2022/08/27 04:11:40;;;;;;;15.78;9.38;;;;;;;20.26;78.83;100001.22;3522358;83;29857;-89
2022/08/27 04:16:42;;;;;;;16.10;9.90;;;;;;;20.26;79.14;100013.19;3507247;83;98835;-89
2022/08/27 04:21:43;;;;;;;17.35;10.28;;;;;;;20.23;79.13;100011.92;3527326;83;31805;-89
2022/08/27 04:26:46;;;;;;;18.20;10.13;;;;;;;20.19;79.23;100014.84;3515196;81;98902;-88
2022/08/27 04:31:47;;;;;;;15.28;9.90;;;;;;;20.17;79.35;100023.51;3554491;82;31686;-89
2022/08/27 04:36:49;;;;;;;16.20;10.55;;;;;;;20.15;79.44;100030.94;3529341;81;98930;-89
2022/08/27 04:41:53;;;;;;;16.35;9.98;;;;;;;20.12;79.46;100038.05;3540677;81;51997;-89
2022/08/27 04:46:59;;;;;;;17.70;10.38;;;;;;;20.16;79.59;100030.33;3493532;82;98911;-89
2022/08/27 04:52:02;;;;;;;16.17;10.30;;;;;;;20.15;79.89;100032.33;3514031;83;42111;-89
2022/08/27 04:57:05;;;;;;;15.08;9.85;;;;;;;20.16;79.61;100030.33;3486757;83;99187;-89
2022/08/27 05:02:08;;;;;;;14.33;9.15;;;;;;;20.16;79.47;100041.51;3496256;83;77983;-89
2022/08/27 05:07:09;;;;;;;16.05;10.45;;;;;;;20.15;79.52;100031.54;3490864;83;99148;-89
2022/08/27 05:12:10;;;;;;;18.12;10.03;;;;;;;20.17;79.69;100024.27;3520363;82;32313;-89
2022/08/27 05:17:11;;;;;;;16.97;10.63;;;;;;;20.18;79.25;100023.66;3414102;84;99142;-88
2022/08/27 05:22:13;;;;;;;15.98;10.98;;;;;;;20.18;79.07;100027.25;3486607;83;32384;-89
2022/08/27 05:27:14;;;;;;;17.20;11.03;;;;;;;20.19;79.06;100030.20;3479609;82;99188;-89
2022/08/27 05:32:15;;;;;;;16.12;11.53;;;;;;;20.20;79.01;100037.35;3459919;83;96197;-90
2022/08/27 05:37:16;;;;;;;15.30;10.50;;;;;;;20.22;78.65;100034.12;3475461;82;99220;-89
2022/08/27 05:42:18;;;;;;;17.65;10.65;;;;;;;20.25;78.88;100025.61;3487282;82;29777;-89
2022/08/27 05:47:19;;;;;;;16.42;10.95;;;;;;;20.39;79.07;100024.33;3463614;82;98886;-90
2022/08/27 05:52:21;;;;;;;16.23;11.45;;;;;;;20.52;78.81;100028.64;3492534;82;31793;-90
2022/08/27 05:57:22;;;;;;;17.23;10.15;;;;;;;20.65;78.58;100038.38;3487633;83;99223;-90
2022/08/27 06:02:24;;;;;;;18.37;11.00;;;;;;;20.76;78.28;100032.55;3487821;82;29817;-88
2022/08/27 06:07:25;;;;;;;17.77;11.48;;;;;;;20.91;78.11;100030.82;3481807;82;99299;-89
2022/08/27 06:12:25;;;;;;;19.12;11.53;;;;;;;21.09;77.97;100035.77;3486102;82;30422;-89
2022/08/27 06:17:28;;;;;;;18.00;11.93;;;;;;;21.23;77.35;100040.20;3456457;82;99204;-89
2022/08/27 06:22:29;;;;;;;15.55;10.63;;;;;;;21.36;77.04;100040.87;3455660;85;31704;-89
2022/08/27 06:27:30;;;;;;;20.08;11.65;;;;;;;21.47;76.44;100034.23;3417531;83;99099;-88
2022/08/27 06:32:31;;;;;;;16.95;11.25;;;;;;;21.62;75.63;100027.45;3441728;83;30337;-88
2022/08/27 06:37:32;;;;;;;16.52;11.12;;;;;;;21.73;75.02;100028.62;3458787;83;99834;-88
2022/08/27 06:42:33;;;;;;;22.93;11.10;;;;;;;21.89;74.60;100029.76;3498022;83;31370;-89
2022/08/27 06:47:34;;;;;;;20.65;10.82;;;;;;;22.04;73.80;100034.94;3491891;83;99163;-89
2022/08/27 06:52:36;;;;;;;16.15;10.00;;;;;;;22.18;73.70;100027.96;3478773;83;32438;-89
2022/08/27 06:57:37;;;;;;;20.88;10.28;;;;;;;22.30;73.24;100029.23;3473684;83;98922;-88
2022/08/27 07:02:38;;;;;;;21.37;11.12;;;;;;;22.45;72.82;100028.78;3479096;83;31560;-87
2022/08/27 07:07:39;;;;;;;16.62;10.55;;;;;;;22.60;72.64;100032.53;3478954;83;99034;-89
2022/08/27 07:12:40;;;;;;;18.70;10.00;;;;;;;22.70;72.18;100033.30;3487773;82;31760;-89
2022/08/27 07:17:43;;;;;;;14.80;9.50;;;;;;;22.81;71.34;100042.81;3483718;82;99045;-88
2022/08/27 07:22:45;;;;;;;19.65;11.22;;;;;;;22.96;71.16;100076.02;3475889;83;37883;-88
2022/08/27 07:27:48;;;;;;;17.57;10.10;;;;;;;23.07;70.24;100068.50;3469235;83;98803;-88
2022/08/27 07:32:49;;;;;;;16.45;9.10;;;;;;;23.20;69.52;100072.72;3477178;83;31619;-88
2022/08/27 07:37:50;;;;;;;24.52;10.58;;;;;;;23.34;69.38;100064.27;3469920;83;98710;-87
2022/08/27 07:48:10;;;;;;;13.50;9.00;;;;;;;23.54;68.09;100047.02;3486723;83;71881;-87
2022/08/27 07:53:11;;;;;;;19.42;9.73;;;;;;;23.84;67.57;100064.23;3478810;83;31640;-87
2022/08/27 07:58:14;;;;;;;17.75;11.57;;;;;;;24.03;67.00;100067.77;3490542;83;99043;-87
2022/08/27 08:03:15;;;;;;;16.90;9.58;;;;;;;24.22;65.87;100072.02;3462973;83;26493;-88
2022/08/27 08:08:16;;;;;;;15.60;8.88;;;;;;;24.42;65.32;100066.58;3482095;83;98843;-87
2022/08/27 08:13:18;;;;;;;18.98;9.38;;;;;;;24.65;64.84;100067.20;3479290;83;31978;-87
2022/08/27 08:18:19;;;;;;;14.80;9.03;;;;;;;24.89;63.54;100069.34;3492363;82;98878;-88
2022/08/27 08:23:20;;;;;;;18.37;9.45;;;;;;;25.17;63.12;100070.66;3491934;83;31604;-88
2022/08/27 08:28:21;;;;;;;15.28;9.93;;;;;;;25.47;63.12;100081.47;3468944;83;98834;-86
2022/08/27 08:33:22;;;;;;;15.93;9.23;;;;;;;25.91;62.76;100082.84;3479396;83;31604;-87
2022/08/27 08:38:25;;;;;;;17.07;8.43;;;;;;;26.53;62.36;100088.87;3471476;83;98810;-86
2022/08/27 08:43:41;;;;;;;14.45;9.20;;;;;;;27.19;62.87;100079.80;3468991;83;31658;-86
2022/08/27 08:48:46;;;;;;;15.23;8.10;;;;;;;27.96;61.09;100083.31;3458184;82;98817;-87
2022/08/27 08:53:56;;;;;;;;;;;;;;;28.85;60.12;100077.63;3526932;83;27935;-87
2022/08/27 08:59:13;;;;;;;14.63;8.33;;;;;;;29.68;54.63;100074.31;3498907;82;84873;-88
2022/08/27 09:04:14;;;;;;;13.53;8.50;;;;;;;30.68;56.86;100072.08;3471403;83;34030;-89
2022/08/27 09:09:57;;;;;;;13.45;8.10;;;;;;;31.70;55.08;100075.42;3471429;83;98707;-88
2022/08/27 09:15:04;;;;;;;15.23;8.33;;;;;;;32.49;52.30;100069.23;3472997;83;25821;-87
2022/08/27 09:20:07;;;;;;;12.55;7.78;;;;;;;33.32;51.17;100066.70;3480518;83;98642;-86
2022/08/27 09:25:19;;;;;;;15.45;8.88;;;;;;;34.11;48.74;100059.25;3487041;84;25973;-86
2022/08/27 09:30:25;;;;;;;11.38;7.05;;;;;;;34.83;47.52;100058.63;3464873;83;98682;-86
2022/08/27 09:35:29;;;;;;;12.60;7.90;;;;;;;35.48;45.32;100051.24;3488451;83;25813;-86
2022/08/27 09:40:44;;;;;;;11.35;6.83;;;;;;;36.07;43.69;100050.25;3483962;83;98492;-86
2022/08/27 09:45:56;;;;;;;15.28;8.58;;;;;;;36.39;41.25;100057.84;3480709;83;26568;-85
2022/08/27 09:51:10;;;;;;;12.13;8.53;;;;;;;36.58;39.54;100050.40;3478670;82;26540;-85
2022/08/27 09:56:30;;;;;;;13.28;7.67;;;;;;;36.98;39.36;100050.11;3486038;83;98725;-87
2022/08/27 10:01:37;;;;;;;11.18;7.75;;;;;;;37.24;37.84;100042.66;3489641;83;61536;-86
2022/08/27 10:06:47;;;;;;;11.60;8.65;;;;;;;37.56;37.98;100036.53;3481809;82;98831;-86
2022/08/27 10:12:12;;;;;;;11.57;7.17;;;;;;;37.93;36.85;100042.92;3487341;83;25908;-85
2022/08/27 10:17:48;;;;;;;12.37;7.72;;;;;;;38.30;36.10;100035.64;3480937;82;98693;-86
2022/08/27 10:23:07;;;;;;;10.75;6.95;;;;;;;38.29;35.34;100032.64;3461919;82;51841;-85
2022/08/27 10:28:45;;;;;;;10.50;7.08;;;;;;;38.89;34.71;100020.31;3478211;83;98695;-85
2022/08/27 10:34:04;;;;;;;14.07;6.97;;;;;;;38.80;32.83;100026.64;3465654;82;36247;-86
2022/08/27 10:39:13;;;;;;;13.80;6.70;;;;;;;38.48;33.04;100013.66;3442634;82;99101;-85
2022/08/27 10:44:39;;;;;;;13.43;6.65;;;;;;;38.76;32.62;100016.23;3416957;83;25795;-86
2022/08/27 10:49:48;;;;;;;12.78;6.30;;;;;;;38.82;31.78;100014.55;3447102;83;98443;-87
2022/08/27 10:55:17;;;;;;;11.28;7.00;;;;;;;38.57;30.86;100007.28;3463421;83;25928;-84
2022/08/27 11:00:22;;;;;;;11.90;6.45;;;;;;;38.53;30.83;100008.34;3483573;83;98688;-86
2022/08/27 11:05:36;;;;;;;11.08;6.75;;;;;;;38.42;31.40;100007.33;3507839;83;81341;-86
2022/08/27 11:10:48;;;;;;;10.28;6.53;;;;;;;38.81;30.42;100009.49;3520349;82;98573;-86
2022/08/27 11:15:52;;;;;;;11.95;6.75;;;;;;;38.88;30.52;100012.25;3525585;83;26373;-87
2022/08/27 11:21:04;;;;;;;12.30;6.62;;;;;;;38.78;30.06;100009.87;3510272;82;98439;-87
2022/08/27 11:26:06;;;;;;;10.98;7.42;;;;;;;38.40;29.93;100003.50;3514179;81;98773;-87
2022/08/27 11:31:28;;;;;;;10.90;7.08;;;;;;;38.50;30.76;100008.75;3517196;83;25868;-87
2022/08/27 11:37:07;;;;;;;9.58;6.28;;;;;;;38.31;29.82;100001.22;3512913;82;98692;-86
2022/08/27 11:42:29;;;;;;;11.60;6.78;;;;;;;38.24;29.27;99999.14;3518373;83;26448;-88
2022/08/27 11:47:30;;;;;;;12.75;6.58;;;;;;;37.74;28.91;100003.78;3512650;82;98582;-85
2022/08/27 11:52:41;;;;;;;11.50;6.58;;;;;;;37.48;30.05;99996.20;3513497;83;85572;-87
2022/08/27 11:57:43;;;;;;;11.63;6.08;;;;;;;37.22;29.29;99999.42;3510232;82;98899;-87
2022/08/27 12:03:01;;;;;;;14.00;6.28;;;;;;;37.29;30.03;99991.48;3526690;82;156072;-87
2022/08/27 12:08:26;;;;;;;12.23;6.12;;;;;;;37.45;29.61;99982.32;3505705;83;98854;-85
2022/08/27 12:13:52;;;;;;;10.48;6.55;;;;;;;37.08;29.12;99980.80;3511302;82;26613;-85
2022/08/27 12:19:26;;;;;;;13.68;6.37;;;;;;;36.70;29.65;99977.84;3523898;82;98909;-85
2022/08/27 12:24:50;;;;;;;11.53;6.72;;;;;;;36.96;29.75;99972.45;3513585;82;36434;-87
2022/08/27 12:30:20;;;;;;;11.83;5.45;;;;;;;36.75;29.91;99960.34;3475760;82;98432;-85
2022/08/27 12:35:38;;;;;;;14.83;5.70;;;;;;;36.80;29.92;99960.84;3490882;83;28670;-88
2022/08/27 12:40:47;;;;;;;9.68;5.40;;;;;;;36.78;29.73;99962.09;3501586;83;98729;-86
2022/08/27 12:45:55;;;;;;;10.18;5.58;;;;;;;36.45;29.31;99957.36;3508131;83;26783;-84
2022/08/27 12:51:05;;;;;;;10.98;5.83;;;;;;;36.14;29.21;99957.08;3508464;83;31754;-86
2022/08/27 12:56:30;;;;;;;12.78;6.03;;;;;;;35.80;29.97;99953.63;3508798;82;98508;-88
2022/08/27 13:01:56;;;;;;;10.03;6.12;;;;;;;35.72;30.13;99957.09;3515657;82;33189;-86
2022/08/27 13:06:57;;;;;;;11.33;5.60;;;;;;;35.70;29.84;99948.27;3491147;82;98718;-85
2022/08/27 13:12:01;;;;;;;10.90;5.08;;;;;;;35.58;29.84;99939.20;3509030;83;25951;-86
2022/08/27 13:17:15;;;;;;;11.33;5.85;;;;;;;35.49;29.42;99934.01;3500053;83;98929;-87
2022/08/27 13:22:37;;;;;;;10.65;6.03;;;;;;;35.43;29.75;99931.95;3478231;83;100747;-86
2022/08/27 13:27:38;;;;;;;12.53;5.67;;;;;;;35.21;30.00;99938.23;3503800;82;98708;-87
2022/08/27 13:32:40;;;;;;;11.20;5.87;;;;;;;34.87;30.05;99939.60;3508232;82;26233;-86
2022/08/27 13:37:49;;;;;;;11.33;5.35;;;;;;;34.90;30.66;99940.69;3492377;82;98756;-85
2022/08/27 13:42:51;;;;;;;14.75;5.97;;;;;;;34.87;30.65;99926.73;3516996;82;33181;-85
2022/08/27 13:47:53;;;;;;;10.43;6.22;;;;;;;34.82;30.69;99928.38;3480270;83;98793;-86
2022/08/27 13:58:32;;;;;;;11.05;6.20;;;;;;;34.52;31.06;99927.25;3472509;82;98837;-85
2022/08/27 14:03:38;;;;;;;10.28;6.08;;;;;;;34.46;30.82;99921.68;3481386;83;26858;-85
2022/08/27 14:08:39;;;;;;;12.13;5.75;;;;;;;34.41;30.54;99924.00;3476059;83;98817;-86
2022/08/27 14:13:45;;;;;;;10.18;6.15;;;;;;;34.25;30.98;99922.24;3483312;83;26426;-85
2022/08/27 14:18:57;;;;;;;8.53;5.25;;;;;;;34.14;31.40;99913.91;3476910;82;98430;-86
2022/08/27 14:23:58;;;;;;;12.68;6.70;;;;;;;34.07;32.17;99910.95;3470638;82;26349;-85
2022/08/27 14:29:00;;;;;;;11.70;5.90;;;;;;;33.98;31.84;99911.39;3476947;82;98482;-86
2022/08/27 14:34:01;;;;;;;11.43;5.67;;;;;;;33.79;31.79;99908.66;3477923;82;26675;-87
2022/08/27 14:39:02;;;;;;;10.00;5.75;;;;;;;33.50;32.55;99916.85;3475698;83;98813;-87
2022/08/27 14:44:04;;;;;;;13.22;6.17;;;;;;;33.41;32.72;99906.53;3482963;83;31760;-86
2022/08/27 14:49:23;;;;;;;10.08;6.15;;;;;;;33.15;32.42;99908.66;3522425;81;98798;-85
2022/08/27 14:54:24;;;;;;;10.35;5.83;;;;;;;33.03;32.73;99906.53;3538907;83;26530;-84
2022/08/27 14:59:25;;;;;;;12.85;5.40;;;;;;;32.83;32.52;99907.11;3522911;83;98845;-86
2022/08/27 15:04:28;;;;;;;25.17;7.58;;;;;;;32.56;32.71;99912.55;3546451;81;31905;-86
2022/08/27 15:09:29;;;;;;;11.18;5.60;;;;;;;32.42;32.51;99911.70;3537132;82;98614;-85
2022/08/27 15:14:34;;;;;;;10.60;6.00;;;;;;;32.28;33.46;99907.91;3532483;81;76561;-86
2022/08/27 15:19:35;;;;;;;10.63;5.70;;;;;;;32.17;33.66;99910.88;3516035;83;98781;-86
2022/08/27 15:24:44;;;;;;;11.68;5.30;;;;;;;32.04;33.48;99905.09;3518419;81;32408;-86
2022/08/27 15:29:46;;;;;;;14.38;7.75;;;;;;;31.87;33.52;99913.08;3534580;81;98854;-86
2022/08/27 15:34:47;;;;;;;13.18;7.25;;;;;;;31.80;35.69;99914.44;3513115;83;26355;-85
2022/08/27 15:39:49;;;;;;;14.98;7.90;;;;;;;31.65;37.79;99917.56;3524275;81;98559;-88
2022/08/27 15:44:53;;;;;;;12.55;7.15;;;;;;;31.42;38.52;99923.34;3541978;82;31755;-87
2022/08/27 15:49:54;;;;;;;11.22;7.37;;;;;;;31.34;39.41;99923.83;3478002;83;98936;-87
2022/08/27 15:54:56;;;;;;;13.08;7.78;;;;;;;31.19;39.36;99927.06;3499071;82;31631;-86
2022/08/27 15:59:57;;;;;;;14.58;8.40;;;;;;;31.12;40.01;99927.59;3507148;82;98816;-87
2022/08/27 16:04:58;;;;;;;12.88;6.80;;;;;;;31.03;40.17;99927.95;3510501;83;32442;-87
2022/08/27 16:09:59;;;;;;;11.85;7.42;;;;;;;30.91;41.01;99922.88;3509872;82;98935;-87
2022/08/27 16:15:00;;;;;;;10.20;7.25;;;;;;;30.80;42.08;99918.70;3511432;83;32279;-87
2022/08/27 16:20:03;;;;;;;15.35;7.97;;;;;;;30.68;42.74;99921.50;3497465;82;98593;-87
2022/08/27 16:25:06;;;;;;;10.10;7.05;;;;;;;30.46;43.47;99914.52;3511713;83;26553;-88
2022/08/27 16:30:08;;;;;;;13.15;7.90;;;;;;;30.30;44.18;99916.80;3515095;82;98726;-88
2022/08/27 16:35:09;;;;;;;11.00;6.70;;;;;;;30.09;44.69;99909.27;3512060;82;26334;-87
2022/08/27 16:40:14;;;;;;;10.13;6.87;;;;;;;29.88;45.63;99897.34;3503588;83;98586;-87
2022/08/27 16:45:18;;;;;;;11.45;7.50;;;;;;;29.70;46.17;99902.94;3507737;83;25853;-88
2022/08/27 16:50:34;;;;;;;10.55;6.83;;;;;;;29.44;46.92;99894.61;3489726;81;99044;-88
2022/08/27 16:55:36;;;;;;;12.07;7.97;;;;;;;29.30;47.59;99906.36;3497284;83;54758;-88
2022/08/27 17:00:38;;;;;;;15.15;9.43;;;;;;;29.07;48.07;99916.18;3450272;84;98489;-87
2022/08/27 17:05:39;;;;;;;17.20;12.30;;;;;;;28.85;48.87;99911.11;3496866;83;26486;-88
2022/08/27 17:10:44;;;;;;;17.52;12.33;;;;;;;28.65;49.68;99924.08;3487751;82;98665;-87
2022/08/27 17:15:50;;;;;;;21.23;17.27;;;;;;;28.45;50.35;99927.15;3494020;83;39602;-87
2022/08/27 17:20:52;;;;;;;56.53;44.63;;;;;;;28.23;50.93;99940.55;3464585;83;99062;-88
2022/08/27 17:25:53;;;;;;;50.43;37.95;;;;;;;28.04;51.76;99946.53;3489020;82;27133;-87
2022/08/27 17:30:56;;;;;;;36.03;27.93;;;;;;;27.86;52.48;99953.25;3456309;84;98413;-88
2022/08/27 17:35:58;;;;;;;22.02;16.77;;;;;;;27.68;53.23;99954.40;3460795;83;99075;-82
2022/08/27 17:41:04;;;;;;;20.25;13.95;;;;;;;27.49;53.92;99963.78;3497114;83;26584;-87
2022/08/27 17:46:05;;;;;;;23.65;12.70;;;;;;;27.30;54.65;99971.11;3491820;84;98829;-88
2022/08/27 17:51:10;;;;;;;17.15;11.70;;;;;;;27.14;55.06;99978.78;3476238;82;104738;-88
2022/08/27 17:56:12;;;;;;;17.60;11.50;;;;;;;26.96;55.73;99981.30;3469069;84;99302;-88
2022/08/27 18:01:18;;;;;;;13.88;10.38;;;;;;;26.82;56.39;99986.42;3457855;84;26293;-88
2022/08/27 18:06:19;;;;;;;16.35;10.18;;;;;;;26.68;56.83;99983.70;3466619;83;99014;-87
2022/08/27 18:11:21;;;;;;;23.10;14.50;;;;;;;26.51;57.38;99994.80;3453893;83;29733;-88
2022/08/27 18:16:22;;;;;;;29.55;19.40;;;;;;;26.38;57.90;99995.78;3471564;82;99048;-88
2022/08/27 18:21:23;;;;;;;21.77;12.82;;;;;;;26.26;58.52;99995.52;3477939;83;31725;-87
2022/08/27 18:26:28;;;;;;;14.80;10.28;;;;;;;26.16;59.09;99997.56;3470220;83;99126;-88
2022/08/27 18:31:31;;;;;;;19.53;11.97;;;;;;;26.01;59.56;100002.48;3474386;82;26656;-87
2022/08/27 18:36:33;;;;;;;17.02;10.10;;;;;;;25.89;59.91;100001.52;3463243;83;98822;-87
2022/08/27 18:41:34;;;;;;;15.75;10.25;;;;;;;25.78;60.37;99999.95;3470986;82;31667;-89
2022/08/27 18:46:36;;;;;;;20.92;10.65;;;;;;;25.65;60.79;100007.97;3435291;83;2254602;-87
2022/08/27 18:51:41;;;;;;;21.62;11.18;;;;;;;25.56;61.14;100009.48;3480287;83;31781;-88
2022/08/27 18:56:43;;;;;;;19.32;12.82;;;;;;;25.47;61.60;100013.05;3444670;84;99298;-87
2022/08/27 19:01:44;;;;;;;25.15;15.00;;;;;;;25.38;62.11;100011.74;3470193;83;31640;-89
2022/08/27 19:06:45;;;;;;;28.70;17.42;;;;;;;25.30;62.51;100019.05;3464210;83;99027;-88
2022/08/27 19:11:47;;;;;;;33.13;20.02;;;;;;;25.19;62.64;100030.89;3472522;82;31688;-89
2022/08/27 19:16:54;;;;;;;39.85;20.17;;;;;;;25.08;62.85;100021.45;3474620;83;99436;-90
2022/08/27 19:21:53;;;;;;;;;;;;;;;24.96;63.46;100026.09;3474417;83;25828;-89
2022/08/27 19:26:54;;;;;;;21.82;13.55;;;;;;;24.87;65.24;100029.64;3471978;83;85253;-91
2022/08/27 19:31:56;;;;;;;25.40;13.58;;;;;;;24.78;63.91;100029.09;3478764;83;31658;-90
2022/08/27 19:36:59;;;;;;;18.45;11.50;;;;;;;24.69;64.49;100036.20;3480446;83;99772;-90
2022/08/27 19:42:00;;;;;;;21.73;12.78;;;;;;;24.61;64.87;100031.43;3483658;82;45090;-89
2022/08/27 19:47:01;;;;;;;17.60;11.60;;;;;;;24.54;65.14;100031.78;3479783;82;99372;-88
2022/08/27 19:52:03;;;;;;;21.25;11.85;;;;;;;24.46;65.65;100027.15;3490677;83;31738;-89
2022/08/27 19:57:04;;;;;;;16.12;11.83;;;;;;;24.40;66.08;100037.52;3488997;83;98880;-90
2022/08/27 20:02:07;;;;;;;18.37;11.22;;;;;;;24.33;66.40;100037.89;3493372;81;31818;-89
2022/08/27 20:07:14;;;;;;;17.50;11.65;;;;;;;24.25;66.77;100038.08;3487424;83;99326;-91
2022/08/27 20:12:16;;;;;;;17.07;11.70;;;;;;;24.19;67.23;100047.03;3464563;82;1799666;-91
2022/08/27 20:17:17;;;;;;;19.07;11.88;;;;;;;24.12;67.55;100045.20;3476589;83;99733;-91
2022/08/27 20:22:18;;;;;;;15.98;11.80;;;;;;;24.04;68.00;100041.96;3483188;82;31645;-90
2022/08/27 20:27:19;;;;;;;20.77;11.50;;;;;;;24.00;68.52;100035.77;3471580;82;225279;-90
2022/08/27 20:32:21;;;;;;;16.60;12.25;;;;;;;23.95;68.82;100038.44;3488759;83;32672;-90
2022/08/27 20:37:22;;;;;;;16.30;12.13;;;;;;;23.87;69.10;100036.56;3478451;82;99228;-90
2022/08/27 20:42:24;;;;;;;18.87;11.85;;;;;;;23.83;69.58;100035.98;3478191;82;32259;-91
2022/08/27 20:47:27;;;;;;;20.52;12.13;;;;;;;23.78;69.71;100040.06;3475861;82;99332;-86
2022/08/27 20:52:28;;;;;;;15.55;11.30;;;;;;;23.73;70.17;100042.89;3480188;83;32327;-90
2022/08/27 20:57:29;;;;;;;17.02;12.18;;;;;;;23.68;70.60;100043.55;3440547;82;99469;-91
2022/08/27 21:02:30;;;;;;;17.07;10.98;;;;;;;23.66;70.74;100048.08;3485763;83;31724;-90
2022/08/27 21:07:32;;;;;;;15.50;11.25;;;;;;;23.57;71.01;100038.27;3474000;83;208091;-90
2022/08/27 21:12:33;;;;;;;18.25;12.90;;;;;;;23.51;71.49;100034.55;3461319;82;31782;-90
2022/08/27 21:17:36;;;;;;;18.02;11.68;;;;;;;23.47;71.71;100033.94;3474876;83;99134;-89
2022/08/27 21:22:40;;;;;;;17.37;12.10;;;;;;;23.42;72.20;100033.96;3482930;83;31781;-90
2022/08/27 21:27:42;;;;;;;17.90;13.00;;;;;;;23.41;72.50;100035.22;3477637;83;99122;-91
2022/08/27 21:32:43;;;;;;;17.37;12.00;;;;;;;23.38;72.70;100042.41;3478130;83;32233;-91
2022/08/27 21:37:44;;;;;;;19.60;12.28;;;;;;;23.34;72.88;100040.39;3477212;83;99154;-90
2022/08/27 21:42:46;;;;;;;19.77;14.10;;;;;;;23.28;72.85;100041.64;3476929;83;31672;-90
2022/08/27 21:47:48;;;;;;;17.73;12.20;;;;;;;23.22;73.43;100043.53;3469325;82;99080;-90
2022/08/27 21:52:50;;;;;;;21.37;12.50;;;;;;;23.22;73.89;100037.91;3504585;82;32227;-90
2022/08/27 21:57:51;;;;;;;18.73;13.15;;;;;;;23.22;74.12;100035.11;3501527;82;99444;-91
2022/08/27 22:02:52;;;;;;;15.98;12.13;;;;;;;23.19;74.22;100028.26;3511789;82;31694;-90
2022/08/27 22:07:53;;;;;;;19.55;13.83;;;;;;;23.17;74.49;100027.32;3499370;82;99406;-90
2022/08/27 22:12:54;;;;;;;19.20;13.20;;;;;;;23.12;74.59;100026.55;3503434;82;31920;-90
2022/08/27 22:17:55;;;;;;;21.42;13.50;;;;;;;23.00;74.86;100017.66;3490390;82;99280;-90
2022/08/27 22:22:57;;;;;;;19.48;13.20;;;;;;;23.03;75.15;100027.17;3524531;82;30304;-90
2022/08/27 22:27:58;;;;;;;20.85;13.18;;;;;;;22.97;75.48;100021.43;3489993;82;99289;-87
2022/08/27 22:32:59;;;;;;;22.17;13.80;;;;;;;22.92;75.63;100017.84;3521472;82;31535;-87
2022/08/27 22:38:01;;;;;;;21.68;14.00;;;;;;;22.87;75.73;100017.08;3486554;82;99030;-86
2022/08/27 22:43:03;;;;;;;18.12;13.88;;;;;;;22.73;76.43;100017.70;3487830;83;32438;-87
2022/08/27 22:48:04;;;;;;;20.23;14.07;;;;;;;22.70;76.64;100013.66;3499869;82;99342;-87
2022/08/27 22:53:05;;;;;;;22.37;15.25;;;;;;;22.65;76.99;100012.27;3482076;82;32679;-87
2022/08/27 22:58:06;;;;;;;19.37;15.10;;;;;;;22.63;77.23;100004.16;3483338;82;99305;-87
2022/08/27 23:03:10;;;;;;;17.70;13.00;;;;;;;22.57;77.43;100008.84;3487220;83;32172;-87
2022/08/27 23:08:13;;;;;;;24.37;15.98;;;;;;;22.56;77.74;100008.70;3462404;83;99454;-87
2022/08/27 23:13:14;;;;;;;20.97;14.83;;;;;;;22.50;78.01;100007.13;3480679;82;32851;-87
2022/08/27 23:18:15;;;;;;;20.35;15.68;;;;;;;22.47;78.14;100004.48;3475358;83;99440;-86
2022/08/27 23:23:17;;;;;;;23.30;14.83;;;;;;;22.43;79.07;100003.20;3480506;83;61378;-87
2022/08/27 23:28:18;;;;;;;20.40;14.60;;;;;;;22.33;79.27;100007.25;3464784;83;99393;-87
2022/08/27 23:33:20;;;;;;;18.98;13.50;;;;;;;22.33;79.41;100012.86;3476513;83;138971;-87